Time,TemperatureF,DewpointF,PressureIn,WindDirection,WindDirectionDegrees,WindSpeedMPH,WindSpeedGustMPH,Humidity,HourlyPrecipIn,Conditions,Clouds,dailyrainin,SoftwareType,DateUTC
2013-01-06 00:13:00,-999.0,-99.9,29.80,North,-999,-999.0,-999.0,-999,-99.99,,,0.00,weatherlink.com 1.10,2013-01-06 05:13:00,
2013-01-06 00:28:00,-999.0,-99.9,29.79,North,-999,-999.0,-999.0,-999,-99.99,,,0.00,weatherlink.com 1.10,2013-01-06 05:28:00,
2013-01-06 00:43:00,-999.0,-99.9,29.79,North,-999,-999.0,-999.0,-999,-99.99,,,0.00,weatherlink.com 1.10,2013-01-06 05:43:00,
2013-01-06 00:58:00,-999.0,-99.9,29.79,North,-999,-999.0,-999.0,-999,-99.99,,,0.00,weatherlink.com 1.10,2013-01-06 05:58:00,
2013-01-06 01:13:00,-999.0,-99.9,29.79,North,-999,-999.0,-999.0,-999,-99.99,,,0.00,weatherlink.com 1.10,2013-01-06 06:13:00,
2013-01-06 01:28:00,-999.0,-99.9,29.78,North,-999,-999.0,-999.0,-999,-99.99,,,0.00,weatherlink.com 1.10,2013-01-06 06:28:00,
2013-01-06 01:43:00,-999.0,-99.9,29.78,North,-999,-999.0,-999.0,-999,-99.99,,,0.00,weatherlink.com 1.10,2013-01-06 06:43:00,
2013-01-06 01:58:00,-999.0,-99.9,29.78,North,-999,-999.0,-999.0,-999,-99.99,,,0.00,weatherlink.com 1.10,2013-01-06 06:58:00,
2013-01-06 02:13:00,-999.0,-99.9,29.78,North,-999,-999.0,-999.0,-999,-99.99,,,0.00,weatherlink.com 1.10,2013-01-06 07:13:00,
2013-01-06 02:28:00,-999.0,-99.9,29.78,North,-999,-999.0,-999.0,-999,-99.99,,,0.00,weatherlink.com 1.10,2013-01-06 07:28:00,
2013-01-06 02:43:00,-999.0,-99.9,29.78,North,-999,-999.0,-999.0,-999,-99.99,,,0.00,weatherlink.com 1.10,2013-01-06 07:43:00,
2013-01-06 02:58:00,-999.0,-99.9,29.77,North,-999,-999.0,-999.0,-999,-99.99,,,0.00,weatherlink.com 1.10,2013-01-06 07:58:00,
2013-01-06 03:13:00,-999.0,-99.9,29.78,North,-999,-999.0,-999.0,-999,-99.99,,,0.00,weatherlink.com 1.10,2013-01-06 08:13:00,
2013-01-06 03:28:00,-999.0,-99.9,29.79,North,-999,-999.0,-999.0,-999,-99.99,,,0.00,weatherlink.com 1.10,2013-01-06 08:28:00,
2013-01-06 03:44:00,-999.0,-99.9,29.78,North,-999,-999.0,-999.0,-999,-99.99,,,0.00,weatherlink.com 1.10,2013-01-06 08:44:00,
2013-01-06 03:59:00,-999.0,-99.9,29.77,North,-999,-999.0,-999.0,-999,-99.99,,,0.00,weatherlink.com 1.10,2013-01-06 08:59:00,
2013-01-06 04:14:00,-999.0,-99.9,29.77,North,-999,-999.0,-999.0,-999,-99.99,,,0.00,weatherlink.com 1.10,2013-01-06 09:14:00,
2013-01-06 04:29:00,-999.0,-99.9,29.77,North,-999,-999.0,-999.0,-999,-99.99,,,0.00,weatherlink.com 1.10,2013-01-06 09:29:00,
2013-01-06 04:44:00,-999.0,-99.9,29.78,North,-999,-999.0,-999.0,-999,-99.99,,,0.00,weatherlink.com 1.10,2013-01-06 09:44:00,
2013-01-06 04:59:00,-999.0,-99.9,29.77,North,-999,-999.0,-999.0,-999,-99.99,,,0.00,weatherlink.com 1.10,2013-01-06 09:59:00,
2013-01-06 05:14:00,-999.0,-99.9,29.77,North,-999,-999.0,-999.0,-999,-99.99,,,0.00,weatherlink.com 1.10,2013-01-06 10:14:00,
2013-01-06 05:29:00,-999.0,-99.9,29.77,North,-999,-999.0,-999.0,-999,-99.99,,,0.00,weatherlink.com 1.10,2013-01-06 10:29:00,
2013-01-06 05:44:00,-999.0,-99.9,29.76,North,-999,-999.0,-999.0,-999,-99.99,,,0.00,weatherlink.com 1.10,2013-01-06 10:44:00,
2013-01-06 05:59:00,-999.0,-99.9,29.77,North,-999,-999.0,-999.0,-999,-99.99,,,0.00,weatherlink.com 1.10,2013-01-06 10:59:00,
2013-01-06 06:14:00,-999.0,-99.9,29.77,North,-999,-999.0,-999.0,-999,-99.99,,,0.00,weatherlink.com 1.10,2013-01-06 11:14:00,
2013-01-06 06:29:00,-999.0,-99.9,29.78,North,-999,-999.0,-999.0,-999,-99.99,,,0.00,weatherlink.com 1.10,2013-01-06 11:29:00,
2013-01-06 06:44:00,-999.0,-99.9,29.78,North,-999,-999.0,-999.0,-999,-99.99,,,0.00,weatherlink.com 1.10,2013-01-06 11:44:00,
2013-01-06 06:59:00,-999.0,-99.9,29.79,North,-999,-999.0,-999.0,-999,-99.99,,,0.00,weatherlink.com 1.10,2013-01-06 11:59:00,
2013-01-06 07:15:00,-999.0,-99.9,29.80,North,-999,-999.0,-999.0,-999,-99.99,,,0.00,weatherlink.com 1.10,2013-01-06 12:15:00,
2013-01-06 07:30:00,-999.0,-99.9,29.80,North,-999,-999.0,-999.0,-999,-99.99,,,0.00,weatherlink.com 1.10,2013-01-06 12:30:00,
2013-01-06 07:45:00,-999.0,-99.9,29.81,North,-999,-999.0,-999.0,-999,-99.99,,,0.00,weatherlink.com 1.10,2013-01-06 12:45:00,
2013-01-06 08:00:00,-999.0,-99.9,29.82,North,-999,-999.0,-999.0,-999,-99.99,,,0.00,weatherlink.com 1.10,2013-01-06 13:00:00,
2013-01-06 08:15:00,-999.0,-99.9,29.82,North,-999,-999.0,-999.0,-999,-99.99,,,0.00,weatherlink.com 1.10,2013-01-06 13:15:00,
2013-01-06 08:30:00,-999.0,-99.9,29.82,North,-999,-999.0,-999.0,-999,-99.99,,,0.00,weatherlink.com 1.10,2013-01-06 13:30:00,
2013-01-06 08:45:00,-999.0,-99.9,29.83,North,-999,-999.0,-999.0,-999,-99.99,,,0.00,weatherlink.com 1.10,2013-01-06 13:45:00,
2013-01-06 09:00:00,-999.0,-99.9,29.84,North,-999,-999.0,-999.0,-999,-99.99,,,0.00,weatherlink.com 1.10,2013-01-06 14:00:00,
2013-01-06 09:15:00,-999.0,-99.9,29.85,North,-999,-999.0,-999.0,-999,-99.99,,,0.00,weatherlink.com 1.10,2013-01-06 14:15:00,
2013-01-06 09:30:00,-999.0,-99.9,29.86,North,-999,-999.0,-999.0,-999,-99.99,,,0.00,weatherlink.com 1.10,2013-01-06 14:30:00,
2013-01-06 09:45:00,-999.0,-99.9,29.86,North,-999,-999.0,-999.0,-999,-99.99,,,0.00,weatherlink.com 1.10,2013-01-06 14:45:00,
2013-01-06 10:00:00,-999.0,-99.9,29.87,North,-999,-999.0,-999.0,-999,-99.99,,,0.00,weatherlink.com 1.10,2013-01-06 15:00:00,
2013-01-06 10:15:00,-999.0,-99.9,29.88,North,-999,-999.0,-999.0,-999,-99.99,,,0.00,weatherlink.com 1.10,2013-01-06 15:15:00,
2013-01-06 10:31:00,-999.0,-99.9,29.89,North,-999,-999.0,-999.0,-999,-99.99,,,0.00,weatherlink.com 1.10,2013-01-06 15:31:00,
2013-01-06 10:46:00,-999.0,-99.9,29.90,North,-999,-999.0,-999.0,-999,-99.99,,,0.00,weatherlink.com 1.10,2013-01-06 15:46:00,
2013-01-06 11:01:00,-999.0,-99.9,29.90,North,-999,-999.0,-999.0,-999,-99.99,,,0.00,weatherlink.com 1.10,2013-01-06 16:01:00,
2013-01-06 11:16:00,27.0,24.0,29.90,ENE,67,7.0,-999.0,89,-99.99,,,0.00,weatherlink.com 1.10,2013-01-06 16:16:00,
2013-01-06 11:31:00,27.3,24.0,29.91,East,80,7.0,-999.0,88,-99.99,,,0.00,weatherlink.com 1.10,2013-01-06 16:31:00,
2013-01-06 11:46:00,27.6,25.0,29.92,ENE,78,3.0,-999.0,88,-99.99,,,0.00,weatherlink.com 1.10,2013-01-06 16:46:00,
2013-01-06 12:01:00,27.2,24.0,29.93,ENE,64,10.0,-999.0,87,-99.99,,,0.00,weatherlink.com 1.10,2013-01-06 17:01:00,
2013-01-06 12:16:00,27.1,24.0,29.93,NE,56,5.0,-999.0,87,-99.99,,,0.00,weatherlink.com 1.10,2013-01-06 17:16:00,
2013-01-06 12:31:00,27.2,24.0,29.94,ENE,64,7.0,-999.0,87,-99.99,,,0.00,weatherlink.com 1.10,2013-01-06 17:31:00,
2013-01-06 12:46:00,27.1,24.0,29.94,NE,51,1.0,-999.0,86,-99.99,,,0.00,weatherlink.com 1.10,2013-01-06 17:46:00,
2013-01-06 13:01:00,26.9,23.0,29.94,ENE,60,4.0,-999.0,86,-99.99,,,0.00,weatherlink.com 1.10,2013-01-06 18:01:00,
2013-01-06 13:16:00,26.9,23.0,29.95,ENE,59,6.0,-999.0,85,-99.99,,,0.00,weatherlink.com 1.10,2013-01-06 18:16:00,
2013-01-06 13:31:00,27.2,23.0,29.96,ENE,57,3.0,-999.0,84,-99.99,,,0.00,weatherlink.com 1.10,2013-01-06 18:31:00,
2013-01-06 13:46:00,27.5,23.0,29.97,NE,55,3.0,-999.0,84,-99.99,,,0.00,weatherlink.com 1.10,2013-01-06 18:46:00,
2013-01-06 14:01:00,27.7,23.0,29.98,NE,34,5.0,-999.0,82,-99.99,,,0.00,weatherlink.com 1.10,2013-01-06 19:01:00,
2013-01-06 14:16:00,27.9,22.0,29.98,NE,36,4.0,-999.0,79,-99.99,,,0.00,weatherlink.com 1.10,2013-01-06 19:16:00,
2013-01-06 14:31:00,28.4,23.0,29.99,NE,36,5.0,-999.0,79,-99.99,,,0.00,weatherlink.com 1.10,2013-01-06 19:31:00,
2013-01-06 14:46:00,28.2,23.0,30.00,NNE,33,4.0,-999.0,80,-99.99,,,0.00,weatherlink.com 1.10,2013-01-06 19:46:00,
2013-01-06 15:01:00,28.1,22.0,30.00,NE,35,2.0,-999.0,78,-99.99,,,0.00,weatherlink.com 1.10,2013-01-06 20:01:00,
2013-01-06 15:16:00,28.7,23.0,30.02,NNE,30,1.0,-999.0,78,-99.99,,,0.00,weatherlink.com 1.10,2013-01-06 20:16:00,
2013-01-06 15:31:00,28.1,22.0,30.03,NNE,30,3.0,-999.0,77,-99.99,,,0.00,weatherlink.com 1.10,2013-01-06 20:31:00,
2013-01-06 15:46:00,28.3,22.0,30.03,NNE,29,1.0,-999.0,77,-99.99,,,0.00,weatherlink.com 1.10,2013-01-06 20:46:00,
2013-01-06 16:01:00,28.7,22.0,30.04,NNE,29,0.0,-999.0,77,-99.99,,,0.00,weatherlink.com 1.10,2013-01-06 21:01:00,
2013-01-06 16:16:00,28.9,23.0,30.05,NNE,30,0.0,-999.0,78,-99.99,,,0.00,weatherlink.com 1.10,2013-01-06 21:16:00,
2013-01-06 16:31:00,29.0,23.0,30.06,NNE,30,0.0,-999.0,79,-99.99,,,0.00,weatherlink.com 1.10,2013-01-06 21:31:00,
2013-01-06 16:47:00,-999.0,-99.9,30.07,North,-999,-999.0,-999.0,-999,-99.99,,,0.00,weatherlink.com 1.10,2013-01-06 21:47:00,
2013-01-06 17:02:00,-999.0,-99.9,30.08,North,-999,-999.0,-999.0,-999,-99.99,,,0.00,weatherlink.com 1.10,2013-01-06 22:02:00,
2013-01-06 17:17:00,-999.0,-99.9,30.09,North,-999,-999.0,-999.0,-999,-99.99,,,0.00,weatherlink.com 1.10,2013-01-06 22:17:00,
2013-01-06 17:32:00,-999.0,-99.9,30.10,North,-999,-999.0,-999.0,-999,-99.99,,,0.00,weatherlink.com 1.10,2013-01-06 22:32:00,
2013-01-06 17:47:00,-999.0,-99.9,30.11,North,-999,-999.0,-999.0,-999,-99.99,,,0.00,weatherlink.com 1.10,2013-01-06 22:47:00,
2013-01-06 18:02:00,-999.0,-99.9,30.11,North,-999,-999.0,-999.0,-999,-99.99,,,0.00,weatherlink.com 1.10,2013-01-06 23:02:00,
2013-01-06 18:17:00,-999.0,-99.9,30.12,North,-999,-999.0,-999.0,-999,-99.99,,,0.00,weatherlink.com 1.10,2013-01-06 23:17:00,
2013-01-06 18:32:00,-999.0,-99.9,30.13,North,-999,-999.0,-999.0,-999,-99.99,,,0.00,weatherlink.com 1.10,2013-01-06 23:32:00,
2013-01-06 18:47:00,-999.0,-99.9,30.13,North,-999,-999.0,-999.0,-999,-99.99,,,0.00,weatherlink.com 1.10,2013-01-06 23:47:00,
2013-01-06 19:02:00,-999.0,-99.9,30.14,North,-999,-999.0,-999.0,-999,-99.99,,,0.00,weatherlink.com 1.10,2013-01-07 00:02:00,
2013-01-06 19:17:00,-999.0,-99.9,30.15,North,-999,-999.0,-999.0,-999,-99.99,,,0.00,weatherlink.com 1.10,2013-01-07 00:17:00,
2013-01-06 19:32:00,-999.0,-99.9,30.15,North,-999,-999.0,-999.0,-999,-99.99,,,0.00,weatherlink.com 1.10,2013-01-07 00:32:00,
2013-01-06 19:47:00,-999.0,-99.9,30.16,North,-999,-999.0,-999.0,-999,-99.99,,,0.00,weatherlink.com 1.10,2013-01-07 00:47:00,
2013-01-06 20:03:00,-999.0,-99.9,30.17,North,-999,-999.0,-999.0,-999,-99.99,,,0.00,weatherlink.com 1.10,2013-01-07 01:03:00,
2013-01-06 20:18:00,-999.0,-99.9,30.18,North,-999,-999.0,-999.0,-999,-99.99,,,0.00,weatherlink.com 1.10,2013-01-07 01:18:00,
2013-01-06 20:33:00,-999.0,-99.9,30.18,North,-999,-999.0,-999.0,-999,-99.99,,,0.00,weatherlink.com 1.10,2013-01-07 01:33:00,
2013-01-06 20:48:00,-999.0,-99.9,30.17,North,-999,-999.0,-999.0,-999,-99.99,,,0.00,weatherlink.com 1.10,2013-01-07 01:48:00,
2013-01-06 21:03:00,-999.0,-99.9,30.18,North,-999,-999.0,-999.0,-999,-99.99,,,0.00,weatherlink.com 1.10,2013-01-07 02:03:00,
2013-01-06 21:18:00,-999.0,-99.9,30.18,North,-999,-999.0,-999.0,-999,-99.99,,,0.00,weatherlink.com 1.10,2013-01-07 02:18:00,
2013-01-06 21:33:00,-999.0,-99.9,30.19,North,-999,-999.0,-999.0,-999,-99.99,,,0.00,weatherlink.com 1.10,2013-01-07 02:33:00,
2013-01-06 21:48:00,-999.0,-99.9,30.19,North,-999,-999.0,-999.0,-999,-99.99,,,0.00,weatherlink.com 1.10,2013-01-07 02:48:00,
2013-01-06 22:03:00,-999.0,-99.9,30.19,North,-999,-999.0,-999.0,-999,-99.99,,,0.00,weatherlink.com 1.10,2013-01-07 03:03:00,
2013-01-06 22:18:00,-999.0,-99.9,30.19,North,-999,-999.0,-999.0,-999,-99.99,,,0.00,weatherlink.com 1.10,2013-01-07 03:18:00,
2013-01-06 22:33:00,-999.0,-99.9,30.19,North,-999,-999.0,-999.0,-999,-99.99,,,0.00,weatherlink.com 1.10,2013-01-07 03:33:00,
2013-01-06 22:48:00,-999.0,-99.9,30.20,North,-999,-999.0,-999.0,-999,-99.99,,,0.00,weatherlink.com 1.10,2013-01-07 03:48:00,
2013-01-06 23:03:00,-999.0,-99.9,30.21,North,-999,-999.0,-999.0,-999,-99.99,,,0.00,weatherlink.com 1.10,2013-01-07 04:03:00,
2013-01-06 23:19:00,-999.0,-99.9,30.21,North,-999,-999.0,-999.0,-999,-99.99,,,0.00,weatherlink.com 1.10,2013-01-07 04:19:00,
2013-01-06 23:34:00,-999.0,-99.9,30.21,North,-999,-999.0,-999.0,-999,-99.99,,,0.00,weatherlink.com 1.10,2013-01-07 04:34:00,
2013-01-06 23:49:00,-999.0,-99.9,30.23,North,-999,-999.0,-999.0,-999,-99.99,,,0.00,weatherlink.com 1.10,2013-01-07 04:49:00,